sensor_id;sensor_type;location;lat;lon;timestamp;temperature;humidity
39655;DHT22;25336;59.944;11.010;2023-09-19T00:01:06;18.90;80.60
39655;DHT22;25336;59.944;11.010;2023-09-19T00:03:35;18.90;80.60
39655;DHT22;25336;59.944;11.010;2023-09-19T00:06:05;19.00;80.60
39655;DHT22;25336;59.944;11.010;2023-09-19T00:08:33;18.90;80.40
39655;DHT22;25336;59.944;11.010;2023-09-19T00:10:58;19.00;80.40
39655;DHT22;25336;59.944;11.010;2023-09-19T00:13:34;18.90;80.20
39655;DHT22;25336;59.944;11.010;2023-09-19T00:16:01;18.90;80.10
39655;DHT22;25336;59.944;11.010;2023-09-19T00:18:33;19.00;80.10
39655;DHT22;25336;59.944;11.010;2023-09-19T00:21:00;19.00;80.10
39655;DHT22;25336;59.944;11.010;2023-09-19T00:23:26;19.00;80.00
39655;DHT22;25336;59.944;11.010;2023-09-19T00:25:53;19.00;79.90
39655;DHT22;25336;59.944;11.010;2023-09-19T00:28:23;19.00;79.90
39655;DHT22;25336;59.944;11.010;2023-09-19T00:30:48;18.90;79.80
39655;DHT22;25336;59.944;11.010;2023-09-19T00:33:17;19.00;79.90
39655;DHT22;25336;59.944;11.010;2023-09-19T00:35:48;19.00;79.80
39655;DHT22;25336;59.944;11.010;2023-09-19T00:38:14;19.10;79.90
39655;DHT22;25336;59.944;11.010;2023-09-19T00:40:46;19.00;79.70
39655;DHT22;25336;59.944;11.010;2023-09-19T00:43:11;19.00;79.60
39655;DHT22;25336;59.944;11.010;2023-09-19T00:45:38;19.00;79.50
39655;DHT22;25336;59.944;11.010;2023-09-19T00:48:04;19.00;79.50
39655;DHT22;25336;59.944;11.010;2023-09-19T00:50:34;19.00;79.50
39655;DHT22;25336;59.944;11.010;2023-09-19T00:53:00;19.00;80.20
39655;DHT22;25336;59.944;11.010;2023-09-19T00:55:29;19.00;79.50
39655;DHT22;25336;59.944;11.010;2023-09-19T00:57:56;19.00;78.80
39655;DHT22;25336;59.944;11.010;2023-09-19T01:00:22;19.00;79.60
39655;DHT22;25336;59.944;11.010;2023-09-19T01:02:49;19.00;79.40
39655;DHT22;25336;59.944;11.010;2023-09-19T01:05:15;19.00;79.20
39655;DHT22;25336;59.944;11.010;2023-09-19T01:07:41;19.00;79.00
39655;DHT22;25336;59.944;11.010;2023-09-19T01:10:15;19.70;79.20
39655;DHT22;25336;59.944;11.010;2023-09-19T01:13:03;18.90;78.50
39655;DHT22;25336;59.944;11.010;2023-09-19T01:23:29;18.80;78.30
39655;DHT22;25336;59.944;11.010;2023-09-19T01:26:05;18.70;78.40
39655;DHT22;25336;59.944;11.010;2023-09-19T01:28:43;18.70;78.60
39655;DHT22;25336;59.944;11.010;2023-09-19T01:31:12;18.70;78.70
39655;DHT22;25336;59.944;11.010;2023-09-19T01:33:56;18.60;78.80
39655;DHT22;25336;59.944;11.010;2023-09-19T01:36:32;18.60;80.00
39655;DHT22;25336;59.944;11.010;2023-09-19T01:39:09;18.60;79.00
39655;DHT22;25336;59.944;11.010;2023-09-19T01:42:05;18.60;79.00
39655;DHT22;25336;59.944;11.010;2023-09-19T01:44:53;18.60;79.10
39655;DHT22;25336;59.944;11.010;2023-09-19T01:47:32;18.60;78.80
39655;DHT22;25336;59.944;11.010;2023-09-19T01:50:20;18.60;79.00
39655;DHT22;25336;59.944;11.010;2023-09-19T01:53:04;18.60;79.00
39655;DHT22;25336;59.944;11.010;2023-09-19T01:55:33;18.60;79.10
39655;DHT22;25336;59.944;11.010;2023-09-19T01:58:17;18.50;79.00
39655;DHT22;25336;59.944;11.010;2023-09-19T02:00:48;18.60;79.30
39655;DHT22;25336;59.944;11.010;2023-09-19T02:03:18;18.60;79.20
39655;DHT22;25336;59.944;11.010;2023-09-19T02:05:49;18.60;79.20
39655;DHT22;25336;59.944;11.010;2023-09-19T02:08:20;18.60;79.20
39655;DHT22;25336;59.944;11.010;2023-09-19T02:10:46;18.60;79.10
39655;DHT22;25336;59.944;11.010;2023-09-19T02:13:18;19.50;79.60
39655;DHT22;25336;59.944;11.010;2023-09-19T02:15:45;18.60;79.00
39655;DHT22;25336;59.944;11.010;2023-09-19T02:18:14;18.60;79.00
39655;DHT22;25336;59.944;11.010;2023-09-19T02:20:40;18.60;79.10
39655;DHT22;25336;59.944;11.010;2023-09-19T02:23:06;18.60;79.10
39655;DHT22;25336;59.944;11.010;2023-09-19T02:25:33;18.60;79.20
39655;DHT22;25336;59.944;11.010;2023-09-19T02:27:59;18.60;79.20
39655;DHT22;25336;59.944;11.010;2023-09-19T02:30:26;18.60;79.20
39655;DHT22;25336;59.944;11.010;2023-09-19T02:32:52;18.60;79.30
39655;DHT22;25336;59.944;11.010;2023-09-19T02:35:17;18.60;79.30
39655;DHT22;25336;59.944;11.010;2023-09-19T02:37:45;18.60;79.30
39655;DHT22;25336;59.944;11.010;2023-09-19T02:40:11;18.80;79.50
39655;DHT22;25336;59.944;11.010;2023-09-19T02:42:53;18.60;79.40
39655;DHT22;25336;59.944;11.010;2023-09-19T02:45:19;18.60;79.40
39655;DHT22;25336;59.944;11.010;2023-09-19T02:47:46;18.70;79.40
39655;DHT22;25336;59.944;11.010;2023-09-19T02:50:13;18.70;79.50
39655;DHT22;25336;59.944;11.010;2023-09-19T02:52:42;18.70;79.50
39655;DHT22;25336;59.944;11.010;2023-09-19T02:55:12;19.50;80.00
39655;DHT22;25336;59.944;11.010;2023-09-19T02:57:39;18.70;79.50
39655;DHT22;25336;59.944;11.010;2023-09-19T03:00:09;18.70;79.50
39655;DHT22;25336;59.944;11.010;2023-09-19T03:02:36;18.70;79.50
39655;DHT22;25336;59.944;11.010;2023-09-19T03:05:03;18.70;79.50
39655;DHT22;25336;59.944;11.010;2023-09-19T03:07:29;18.70;79.50
39655;DHT22;25336;59.944;11.010;2023-09-19T03:09:54;18.70;79.50
39655;DHT22;25336;59.944;11.010;2023-09-19T03:12:20;18.80;79.60
39655;DHT22;25336;59.944;11.010;2023-09-19T03:14:46;18.70;79.50
39655;DHT22;25336;59.944;11.010;2023-09-19T03:17:11;18.80;79.60
39655;DHT22;25336;59.944;11.010;2023-09-19T03:19:39;18.70;79.50
39655;DHT22;25336;59.944;11.010;2023-09-19T03:22:05;18.70;79.50
39655;DHT22;25336;59.944;11.010;2023-09-19T03:24:31;18.70;79.50
39655;DHT22;25336;59.944;11.010;2023-09-19T03:26:57;19.40;80.00
39655;DHT22;25336;59.944;11.010;2023-09-19T03:29:23;18.80;79.60
39655;DHT22;25336;59.944;11.010;2023-09-19T03:31:48;18.70;79.60
39655;DHT22;25336;59.944;11.010;2023-09-19T03:34:14;18.70;79.70
39655;DHT22;25336;59.944;11.010;2023-09-19T03:36:40;18.70;79.70
39655;DHT22;25336;59.944;11.010;2023-09-19T03:39:06;18.70;79.70
39655;DHT22;25336;59.944;11.010;2023-09-19T03:41:32;18.70;79.70
39655;DHT22;25336;59.944;11.010;2023-09-19T03:43:58;18.70;79.60
39655;DHT22;25336;59.944;11.010;2023-09-19T03:46:24;18.70;79.70
39655;DHT22;25336;59.944;11.010;2023-09-19T03:48:50;18.70;79.70
39655;DHT22;25336;59.944;11.010;2023-09-19T03:51:16;18.70;79.70
39655;DHT22;25336;59.944;11.010;2023-09-19T03:53:41;18.70;79.70
39655;DHT22;25336;59.944;11.010;2023-09-19T03:56:07;18.70;79.70
39655;DHT22;25336;59.944;11.010;2023-09-19T03:58:33;18.70;79.90
39655;DHT22;25336;59.944;11.010;2023-09-19T04:01:03;18.70;79.80
39655;DHT22;25336;59.944;11.010;2023-09-19T04:03:29;18.70;79.80
39655;DHT22;25336;59.944;11.010;2023-09-19T04:06:00;18.70;79.80
39655;DHT22;25336;59.944;11.010;2023-09-19T04:08:27;18.70;80.20
39655;DHT22;25336;59.944;11.010;2023-09-19T04:10:52;19.30;80.00
39655;DHT22;25336;59.944;11.010;2023-09-19T04:13:18;18.70;79.70
39655;DHT22;25336;59.944;11.010;2023-09-19T04:15:44;18.70;79.70
39655;DHT22;25336;59.944;11.010;2023-09-19T04:18:11;18.70;79.70
39655;DHT22;25336;59.944;11.010;2023-09-19T04:20:37;18.70;79.70
39655;DHT22;25336;59.944;11.010;2023-09-19T04:23:03;18.70;79.70
39655;DHT22;25336;59.944;11.010;2023-09-19T04:25:30;18.70;79.80
39655;DHT22;25336;59.944;11.010;2023-09-19T04:27:56;18.70;79.90
39655;DHT22;25336;59.944;11.010;2023-09-19T04:30:21;18.70;79.90
39655;DHT22;25336;59.944;11.010;2023-09-19T04:32:47;18.60;79.70
39655;DHT22;25336;59.944;11.010;2023-09-19T04:35:16;18.70;79.80
39655;DHT22;25336;59.944;11.010;2023-09-19T04:37:41;18.70;79.80
39655;DHT22;25336;59.944;11.010;2023-09-19T04:40:08;18.70;79.70
39655;DHT22;25336;59.944;11.010;2023-09-19T04:42:43;18.60;79.60
39655;DHT22;25336;59.944;11.010;2023-09-19T04:45:09;18.60;79.60
39655;DHT22;25336;59.944;11.010;2023-09-19T04:47:36;18.60;79.50
39655;DHT22;25336;59.944;11.010;2023-09-19T04:50:05;18.60;79.50
39655;DHT22;25336;59.944;11.010;2023-09-19T04:52:31;18.60;79.50
39655;DHT22;25336;59.944;11.010;2023-09-19T04:54:57;18.60;79.50
39655;DHT22;25336;59.944;11.010;2023-09-19T04:57:23;18.60;79.50
39655;DHT22;25336;59.944;11.010;2023-09-19T04:59:49;18.60;79.50
39655;DHT22;25336;59.944;11.010;2023-09-19T05:02:15;18.60;79.50
39655;DHT22;25336;59.944;11.010;2023-09-19T05:04:41;18.60;79.50
39655;DHT22;25336;59.944;11.010;2023-09-19T05:07:06;18.60;79.60
39655;DHT22;25336;59.944;11.010;2023-09-19T05:09:32;18.60;79.50
39655;DHT22;25336;59.944;11.010;2023-09-19T05:12:00;18.60;79.50
39655;DHT22;25336;59.944;11.010;2023-09-19T05:14:25;18.60;79.50
39655;DHT22;25336;59.944;11.010;2023-09-19T05:16:51;18.60;79.60
39655;DHT22;25336;59.944;11.010;2023-09-19T05:19:17;18.80;79.70
39655;DHT22;25336;59.944;11.010;2023-09-19T05:21:42;19.40;80.10
39655;DHT22;25336;59.944;11.010;2023-09-19T05:24:08;18.60;79.60
39655;DHT22;25336;59.944;11.010;2023-09-19T05:26:33;18.60;79.50
39655;DHT22;25336;59.944;11.010;2023-09-19T05:28:59;18.50;79.50
39655;DHT22;25336;59.944;11.010;2023-09-19T05:31:26;18.50;79.60
39655;DHT22;25336;59.944;11.010;2023-09-19T05:33:53;18.50;79.60
39655;DHT22;25336;59.944;11.010;2023-09-19T05:36:20;18.50;79.60
39655;DHT22;25336;59.944;11.010;2023-09-19T05:38:49;18.50;79.50
39655;DHT22;25336;59.944;11.010;2023-09-19T05:41:16;18.50;79.40
39655;DHT22;25336;59.944;11.010;2023-09-19T05:43:43;18.50;79.30
39655;DHT22;25336;59.944;11.010;2023-09-19T05:46:09;18.50;79.20
39655;DHT22;25336;59.944;11.010;2023-09-19T05:48:34;18.50;79.20
39655;DHT22;25336;59.944;11.010;2023-09-19T05:51:00;18.50;79.20
39655;DHT22;25336;59.944;11.010;2023-09-19T05:53:26;18.50;79.20
39655;DHT22;25336;59.944;11.010;2023-09-19T05:55:52;18.50;79.10
39655;DHT22;25336;59.944;11.010;2023-09-19T05:58:18;18.50;78.90
39655;DHT22;25336;59.944;11.010;2023-09-19T06:00:45;18.50;78.80
39655;DHT22;25336;59.944;11.010;2023-09-19T06:03:12;18.50;78.80
39655;DHT22;25336;59.944;11.010;2023-09-19T06:05:39;18.50;78.90
39655;DHT22;25336;59.944;11.010;2023-09-19T06:08:07;18.90;79.00
39655;DHT22;25336;59.944;11.010;2023-09-19T06:10:33;18.50;78.70
39655;DHT22;25336;59.944;11.010;2023-09-19T06:13:02;18.50;78.60
39655;DHT22;25336;59.944;11.010;2023-09-19T06:15:29;18.50;78.50
39655;DHT22;25336;59.944;11.010;2023-09-19T06:17:58;18.50;78.30
39655;DHT22;25336;59.944;11.010;2023-09-19T06:20:25;18.50;78.00
39655;DHT22;25336;59.944;11.010;2023-09-19T06:22:52;18.50;77.70
39655;DHT22;25336;59.944;11.010;2023-09-19T06:25:19;18.40;77.50
39655;DHT22;25336;59.944;11.010;2023-09-19T06:27:46;18.40;77.50
39655;DHT22;25336;59.944;11.010;2023-09-19T06:30:12;18.40;77.40
39655;DHT22;25336;59.944;11.010;2023-09-19T06:32:38;18.40;77.20
39655;DHT22;25336;59.944;11.010;2023-09-19T06:35:05;18.30;77.00
39655;DHT22;25336;59.944;11.010;2023-09-19T06:37:34;18.30;76.60
39655;DHT22;25336;59.944;11.010;2023-09-19T06:42:34;18.30;76.20
39655;DHT22;25336;59.944;11.010;2023-09-19T06:45:00;18.20;76.20
39655;DHT22;25336;59.944;11.010;2023-09-19T06:47:26;18.20;76.20
39655;DHT22;25336;59.944;11.010;2023-09-19T06:49:51;18.20;76.30
39655;DHT22;25336;59.944;11.010;2023-09-19T06:52:17;18.10;76.20
39655;DHT22;25336;59.944;11.010;2023-09-19T06:54:47;18.10;76.10
39655;DHT22;25336;59.944;11.010;2023-09-19T06:57:18;18.00;76.00
39655;DHT22;25336;59.944;11.010;2023-09-19T06:59:45;18.00;76.70
39655;DHT22;25336;59.944;11.010;2023-09-19T07:02:11;18.00;76.20
39655;DHT22;25336;59.944;11.010;2023-09-19T07:04:37;17.90;76.00
39655;DHT22;25336;59.944;11.010;2023-09-19T07:07:02;17.90;76.00
39655;DHT22;25336;59.944;11.010;2023-09-19T07:09:29;17.90;76.00
39655;DHT22;25336;59.944;11.010;2023-09-19T07:11:54;17.90;75.80
39655;DHT22;25336;59.944;11.010;2023-09-19T07:14:20;17.80;75.80
39655;DHT22;25336;59.944;11.010;2023-09-19T07:16:45;17.80;75.50
39655;DHT22;25336;59.944;11.010;2023-09-19T07:19:13;17.80;75.60
39655;DHT22;25336;59.944;11.010;2023-09-19T07:21:40;17.80;75.80
39655;DHT22;25336;59.944;11.010;2023-09-19T07:24:06;17.80;75.90
39655;DHT22;25336;59.944;11.010;2023-09-19T07:26:33;17.70;76.00
39655;DHT22;25336;59.944;11.010;2023-09-19T07:28:59;17.70;76.40
39655;DHT22;25336;59.944;11.010;2023-09-19T07:31:27;17.80;76.50
39655;DHT22;25336;59.944;11.010;2023-09-19T07:33:54;17.80;76.60
39655;DHT22;25336;59.944;11.010;2023-09-19T07:36:19;17.80;76.70
39655;DHT22;25336;59.944;11.010;2023-09-19T07:38:45;18.40;76.70
39655;DHT22;25336;59.944;11.010;2023-09-19T07:41:11;17.90;76.20
39655;DHT22;25336;59.944;11.010;2023-09-19T07:43:36;17.90;75.80
39655;DHT22;25336;59.944;11.010;2023-09-19T07:46:07;17.90;75.50
39655;DHT22;25336;59.944;11.010;2023-09-19T07:48:37;17.90;75.20
39655;DHT22;25336;59.944;11.010;2023-09-19T07:51:07;18.00;75.30
39655;DHT22;25336;59.944;11.010;2023-09-19T07:53:33;17.90;74.80
39655;DHT22;25336;59.944;11.010;2023-09-19T07:56:07;17.90;74.80
39655;DHT22;25336;59.944;11.010;2023-09-19T07:58:33;17.90;74.80
39655;DHT22;25336;59.944;11.010;2023-09-19T08:01:10;17.90;75.00
39655;DHT22;25336;59.944;11.010;2023-09-19T08:03:39;17.90;74.70
39655;DHT22;25336;59.944;11.010;2023-09-19T08:06:09;17.90;75.10
39655;DHT22;25336;59.944;11.010;2023-09-19T08:08:35;18.00;75.10
39655;DHT22;25336;59.944;11.010;2023-09-19T08:11:05;17.90;74.80
39655;DHT22;25336;59.944;11.010;2023-09-19T08:13:38;18.70;75.00
39655;DHT22;25336;59.944;11.010;2023-09-19T08:16:11;18.00;74.40
39655;DHT22;25336;59.944;11.010;2023-09-19T08:18:37;18.00;74.50
39655;DHT22;25336;59.944;11.010;2023-09-19T08:21:06;18.00;74.70
39655;DHT22;25336;59.944;11.010;2023-09-19T08:23:39;18.00;74.60
39655;DHT22;25336;59.944;11.010;2023-09-19T08:26:05;18.00;74.20
39655;DHT22;25336;59.944;11.010;2023-09-19T08:28:37;18.10;74.10
39655;DHT22;25336;59.944;11.010;2023-09-19T08:31:07;19.10;74.60
39655;DHT22;25336;59.944;11.010;2023-09-19T08:33:36;18.10;73.70
39655;DHT22;25336;59.944;11.010;2023-09-19T08:36:03;18.20;73.50
39655;DHT22;25336;59.944;11.010;2023-09-19T08:38:31;18.20;73.50
39655;DHT22;25336;59.944;11.010;2023-09-19T08:40:59;18.20;73.50
39655;DHT22;25336;59.944;11.010;2023-09-19T08:43:25;18.50;73.90
39655;DHT22;25336;59.944;11.010;2023-09-19T08:49:03;18.20;74.00
39655;DHT22;25336;59.944;11.010;2023-09-19T08:51:41;18.30;73.50
39655;DHT22;25336;59.944;11.010;2023-09-19T08:54:17;18.40;73.70
39655;DHT22;25336;59.944;11.010;2023-09-19T08:56:48;18.40;73.00
39655;DHT22;25336;59.944;11.010;2023-09-19T08:59:15;18.40;73.10
39655;DHT22;25336;59.944;11.010;2023-09-19T09:01:42;19.00;73.30
39655;DHT22;25336;59.944;11.010;2023-09-19T09:04:09;18.50;72.90
39655;DHT22;25336;59.944;11.010;2023-09-19T09:06:38;18.50;72.40
39655;DHT22;25336;59.944;11.010;2023-09-19T09:09:05;18.60;72.40
39655;DHT22;25336;59.944;11.010;2023-09-19T09:11:33;18.60;72.30
39655;DHT22;25336;59.944;11.010;2023-09-19T09:13:59;18.60;72.20
39655;DHT22;25336;59.944;11.010;2023-09-19T09:16:25;18.60;72.10
39655;DHT22;25336;59.944;11.010;2023-09-19T09:18:51;18.60;72.20
39655;DHT22;25336;59.944;11.010;2023-09-19T09:21:18;18.70;72.20
39655;DHT22;25336;59.944;11.010;2023-09-19T09:23:45;18.70;72.20
39655;DHT22;25336;59.944;11.010;2023-09-19T09:26:11;19.70;72.80
39655;DHT22;25336;59.944;11.010;2023-09-19T09:28:44;18.80;72.00
39655;DHT22;25336;59.944;11.010;2023-09-19T09:31:22;18.80;71.00
39655;DHT22;25336;59.944;11.010;2023-09-19T09:33:55;18.90;70.50
39655;DHT22;25336;59.944;11.010;2023-09-19T09:36:40;18.90;70.10
39655;DHT22;25336;59.944;11.010;2023-09-19T09:39:07;18.90;69.70
39655;DHT22;25336;59.944;11.010;2023-09-19T09:41:50;18.90;70.60
39655;DHT22;25336;59.944;11.010;2023-09-19T09:44:17;18.90;70.30
39655;DHT22;25336;59.944;11.010;2023-09-19T09:46:47;19.40;70.00
39655;DHT22;25336;59.944;11.010;2023-09-19T09:49:26;18.90;69.30
39655;DHT22;25336;59.944;11.010;2023-09-19T09:52:05;18.90;68.90
39655;DHT22;25336;59.944;11.010;2023-09-19T09:55:02;18.90;69.80
39655;DHT22;25336;59.944;11.010;2023-09-19T09:57:33;18.90;69.60
39655;DHT22;25336;59.944;11.010;2023-09-19T09:59:59;18.90;69.80
39655;DHT22;25336;59.944;11.010;2023-09-19T10:02:45;18.90;69.20
39655;DHT22;25336;59.944;11.010;2023-09-19T10:05:21;18.80;69.00
39655;DHT22;25336;59.944;11.010;2023-09-19T10:07:52;18.80;68.90
39655;DHT22;25336;59.944;11.010;2023-09-19T10:10:44;18.80;69.40
39655;DHT22;25336;59.944;11.010;2023-09-19T10:13:19;18.70;69.30
39655;DHT22;25336;59.944;11.010;2023-09-19T10:15:49;18.70;69.80
39655;DHT22;25336;59.944;11.010;2023-09-19T10:18:21;18.70;69.30
39655;DHT22;25336;59.944;11.010;2023-09-19T10:20:48;18.70;69.50
39655;DHT22;25336;59.944;11.010;2023-09-19T10:23:17;18.60;69.20
39655;DHT22;25336;59.944;11.010;2023-09-19T10:25:48;18.60;69.30
39655;DHT22;25336;59.944;11.010;2023-09-19T10:28:15;18.60;69.10
39655;DHT22;25336;59.944;11.010;2023-09-19T10:30:43;18.60;68.60
39655;DHT22;25336;59.944;11.010;2023-09-19T10:33:12;18.60;68.20
39655;DHT22;25336;59.944;11.010;2023-09-19T10:35:45;18.60;68.50
39655;DHT22;25336;59.944;11.010;2023-09-19T10:38:12;19.50;68.80
39655;DHT22;25336;59.944;11.010;2023-09-19T10:40:39;18.70;68.40
39655;DHT22;25336;59.944;11.010;2023-09-19T10:43:18;18.70;68.30
39655;DHT22;25336;59.944;11.010;2023-09-19T10:45:49;18.70;67.80
39655;DHT22;25336;59.944;11.010;2023-09-19T10:48:17;18.70;67.70
39655;DHT22;25336;59.944;11.010;2023-09-19T10:51:10;18.70;67.70
39655;DHT22;25336;59.944;11.010;2023-09-19T10:53:50;18.80;66.30
39655;DHT22;25336;59.944;11.010;2023-09-19T10:56:33;18.80;67.00
39655;DHT22;25336;59.944;11.010;2023-09-19T10:59:10;18.80;66.40
39655;DHT22;25336;59.944;11.010;2023-09-19T11:01:45;18.80;66.90
39655;DHT22;25336;59.944;11.010;2023-09-19T11:04:29;18.80;67.30
39655;DHT22;25336;59.944;11.010;2023-09-19T11:07:12;18.90;66.80
39655;DHT22;25336;59.944;11.010;2023-09-19T11:09:53;18.90;66.60
39655;DHT22;25336;59.944;11.010;2023-09-19T11:14:57;19.40;66.70
39655;DHT22;25336;59.944;11.010;2023-09-19T11:30:31;19.20;63.90
39655;DHT22;25336;59.944;11.010;2023-09-19T11:33:17;19.80;64.40
39655;DHT22;25336;59.944;11.010;2023-09-19T11:36:10;19.20;61.80
39655;DHT22;25336;59.944;11.010;2023-09-19T11:46:55;19.20;62.10
39655;DHT22;25336;59.944;11.010;2023-09-19T11:49:31;19.30;60.70
39655;DHT22;25336;59.944;11.010;2023-09-19T11:51:59;19.30;61.40
39655;DHT22;25336;59.944;11.010;2023-09-19T11:54:26;19.40;61.70
39655;DHT22;25336;59.944;11.010;2023-09-19T11:56:57;19.40;61.60
39655;DHT22;25336;59.944;11.010;2023-09-19T11:59:25;19.40;61.00
39655;DHT22;25336;59.944;11.010;2023-09-19T12:02:01;20.10;60.10
39655;DHT22;25336;59.944;11.010;2023-09-19T12:04:42;19.50;59.50
39655;DHT22;25336;59.944;11.010;2023-09-19T12:07:13;20.20;59.30
39655;DHT22;25336;59.944;11.010;2023-09-19T12:09:46;19.60;59.20
39655;DHT22;25336;59.944;11.010;2023-09-19T12:12:23;19.60;58.30
39655;DHT22;25336;59.944;11.010;2023-09-19T12:14:53;19.50;58.30
39655;DHT22;25336;59.944;11.010;2023-09-19T12:17:19;19.50;58.70
39655;DHT22;25336;59.944;11.010;2023-09-19T12:19:53;20.50;58.70
39655;DHT22;25336;59.944;11.010;2023-09-19T12:22:19;19.50;57.70
39655;DHT22;25336;59.944;11.010;2023-09-19T12:24:46;19.40;58.00
39655;DHT22;25336;59.944;11.010;2023-09-19T12:27:12;20.10;57.50
39655;DHT22;25336;59.944;11.010;2023-09-19T12:29:43;19.30;56.70
39655;DHT22;25336;59.944;11.010;2023-09-19T12:32:09;19.80;55.60
39655;DHT22;25336;59.944;11.010;2023-09-19T12:34:35;19.30;56.90
39655;DHT22;25336;59.944;11.010;2023-09-19T12:37:12;19.20;57.00
39655;DHT22;25336;59.944;11.010;2023-09-19T12:39:45;19.10;55.90
39655;DHT22;25336;59.944;11.010;2023-09-19T12:42:16;19.10;56.10
39655;DHT22;25336;59.944;11.010;2023-09-19T12:44:45;19.10;56.50
39655;DHT22;25336;59.944;11.010;2023-09-19T12:47:15;19.10;56.90
39655;DHT22;25336;59.944;11.010;2023-09-19T12:50:14;19.00;56.00
39655;DHT22;25336;59.944;11.010;2023-09-19T12:52:48;19.00;55.60
39655;DHT22;25336;59.944;11.010;2023-09-19T12:55:30;19.00;56.50
39655;DHT22;25336;59.944;11.010;2023-09-19T12:58:14;19.00;55.50
39655;DHT22;25336;59.944;11.010;2023-09-19T13:00:45;19.00;55.70
39655;DHT22;25336;59.944;11.010;2023-09-19T13:06:00;19.00;55.30
39655;DHT22;25336;59.944;11.010;2023-09-19T13:08:35;19.00;55.90
39655;DHT22;25336;59.944;11.010;2023-09-19T13:13:39;18.90;55.90
39655;DHT22;25336;59.944;11.010;2023-09-19T13:16:05;19.20;56.50
39655;DHT22;25336;59.944;11.010;2023-09-19T13:18:43;18.90;56.20
39655;DHT22;25336;59.944;11.010;2023-09-19T13:21:12;18.20;55.90
39655;DHT22;25336;59.944;11.010;2023-09-19T13:23:42;19.00;56.80
39655;DHT22;25336;59.944;11.010;2023-09-19T13:26:09;19.00;56.70
39655;DHT22;25336;59.944;11.010;2023-09-19T13:28:37;19.00;56.10
39655;DHT22;25336;59.944;11.010;2023-09-19T13:31:02;19.00;56.20
39655;DHT22;25336;59.944;11.010;2023-09-19T13:33:28;19.00;56.20
39655;DHT22;25336;59.944;11.010;2023-09-19T13:35:54;18.90;56.30
39655;DHT22;25336;59.944;11.010;2023-09-19T13:38:20;18.90;56.40
39655;DHT22;25336;59.944;11.010;2023-09-19T13:40:47;18.90;56.60
39655;DHT22;25336;59.944;11.010;2023-09-19T13:43:13;18.90;56.50
39655;DHT22;25336;59.944;11.010;2023-09-19T13:45:39;18.80;56.10
39655;DHT22;25336;59.944;11.010;2023-09-19T13:48:08;18.80;56.30
39655;DHT22;25336;59.944;11.010;2023-09-19T13:50:34;18.90;56.50
39655;DHT22;25336;59.944;11.010;2023-09-19T13:53:02;18.60;56.50
39655;DHT22;25336;59.944;11.010;2023-09-19T13:55:28;18.60;56.60
39655;DHT22;25336;59.944;11.010;2023-09-19T13:57:54;18.40;56.50
39655;DHT22;25336;59.944;11.010;2023-09-19T14:00:21;18.40;57.00
39655;DHT22;25336;59.944;11.010;2023-09-19T14:02:48;18.30;57.30
39655;DHT22;25336;59.944;11.010;2023-09-19T14:05:14;18.30;57.50
39655;DHT22;25336;59.944;11.010;2023-09-19T14:07:45;18.20;57.70
39655;DHT22;25336;59.944;11.010;2023-09-19T14:10:13;18.20;57.60
39655;DHT22;25336;59.944;11.010;2023-09-19T14:12:39;18.20;57.30
39655;DHT22;25336;59.944;11.010;2023-09-19T14:15:07;18.20;57.30
39655;DHT22;25336;59.944;11.010;2023-09-19T14:17:33;18.20;57.00
39655;DHT22;25336;59.944;11.010;2023-09-19T14:19:59;18.10;57.00
39655;DHT22;25336;59.944;11.010;2023-09-19T14:22:25;18.00;57.20
39655;DHT22;25336;59.944;11.010;2023-09-19T14:24:50;18.00;57.00
39655;DHT22;25336;59.944;11.010;2023-09-19T14:27:16;17.90;57.00
39655;DHT22;25336;59.944;11.010;2023-09-19T14:29:41;17.80;57.10
39655;DHT22;25336;59.944;11.010;2023-09-19T14:32:07;17.80;57.10
39655;DHT22;25336;59.944;11.010;2023-09-19T14:34:33;17.70;57.20
39655;DHT22;25336;59.944;11.010;2023-09-19T14:36:59;17.60;57.20
39655;DHT22;25336;59.944;11.010;2023-09-19T14:39:24;17.50;57.40
39655;DHT22;25336;59.944;11.010;2023-09-19T14:41:50;17.50;57.60
39655;DHT22;25336;59.944;11.010;2023-09-19T14:44:16;17.40;57.80
39655;DHT22;25336;59.944;11.010;2023-09-19T14:46:42;17.30;58.10
39655;DHT22;25336;59.944;11.010;2023-09-19T14:49:09;17.30;58.30
39655;DHT22;25336;59.944;11.010;2023-09-19T14:51:37;17.40;58.40
39655;DHT22;25336;59.944;11.010;2023-09-19T14:54:03;17.40;58.30
39655;DHT22;25336;59.944;11.010;2023-09-19T14:56:29;17.40;58.30
39655;DHT22;25336;59.944;11.010;2023-09-19T14:58:56;17.50;58.60
39655;DHT22;25336;59.944;11.010;2023-09-19T15:01:22;17.50;58.00
39655;DHT22;25336;59.944;11.010;2023-09-19T15:03:47;17.60;57.80
39655;DHT22;25336;59.944;11.010;2023-09-19T15:06:15;17.50;58.00
39655;DHT22;25336;59.944;11.010;2023-09-19T15:08:43;17.60;58.00
39655;DHT22;25336;59.944;11.010;2023-09-19T15:11:22;17.60;58.00
39655;DHT22;25336;59.944;11.010;2023-09-19T15:13:51;17.60;57.20
39655;DHT22;25336;59.944;11.010;2023-09-19T15:16:18;18.70;58.10
39655;DHT22;25336;59.944;11.010;2023-09-19T15:18:45;18.50;57.80
39655;DHT22;25336;59.944;11.010;2023-09-19T15:21:14;17.70;56.80
39655;DHT22;25336;59.944;11.010;2023-09-19T15:23:42;17.70;57.00
39655;DHT22;25336;59.944;11.010;2023-09-19T15:26:13;17.70;56.50
39655;DHT22;25336;59.944;11.010;2023-09-19T15:28:39;17.70;56.00
39655;DHT22;25336;59.944;11.010;2023-09-19T15:31:07;17.70;55.90
39655;DHT22;25336;59.944;11.010;2023-09-19T15:33:33;17.80;55.90
39655;DHT22;25336;59.944;11.010;2023-09-19T15:36:13;17.80;56.00
39655;DHT22;25336;59.944;11.010;2023-09-19T15:38:58;17.80;55.70
39655;DHT22;25336;59.944;11.010;2023-09-19T15:41:25;17.70;54.90
39655;DHT22;25336;59.944;11.010;2023-09-19T15:43:52;17.70;55.20
39655;DHT22;25336;59.944;11.010;2023-09-19T15:46:18;18.00;55.10
39655;DHT22;25336;59.944;11.010;2023-09-19T15:48:44;17.70;55.10
39655;DHT22;25336;59.944;11.010;2023-09-19T15:51:11;17.70;55.30
39655;DHT22;25336;59.944;11.010;2023-09-19T15:53:56;17.70;55.50
39655;DHT22;25336;59.944;11.010;2023-09-19T15:56:22;17.60;55.00
39655;DHT22;25336;59.944;11.010;2023-09-19T15:58:53;17.70;55.40
39655;DHT22;25336;59.944;11.010;2023-09-19T16:01:22;17.60;55.40
39655;DHT22;25336;59.944;11.010;2023-09-19T16:03:52;17.50;55.40
39655;DHT22;25336;59.944;11.010;2023-09-19T16:06:26;17.50;55.30
39655;DHT22;25336;59.944;11.010;2023-09-19T16:08:53;17.40;55.40
39655;DHT22;25336;59.944;11.010;2023-09-19T16:11:21;17.30;55.40